Nearby METAR Reports

 

LEVT - Vitoria, Spain
Distance from station: O 10km
Actualización: 30/07/2021 08:30
Parcialmente nuboso
Parcialmente nuboso
 Viento del E
Viento: E 7 km/h
Temperatura: 17°C
Rocío: 13°C
Humedad: 77%
Barómetro: 1017 hPa
Clouds: Parcialmente nuboso
Visibility: 10 km
Cloud details: Few Clouds 732 m
Parcialmente nuboso 975 m
2021/07/30 06:30 LEVT 300630Z 08004KT 050V110 9999 FEW024 SCT032 17/13 Q1017
LELO - Logrono/Agoncill, Spain
Distance from station: SSE 51km
Actualización: 30/07/2021 08:30
Muy nuboso
Muy nuboso
 Viento del O
Viento: O 17 km/h
Temperatura: 19°C
Rocío: 14°C
Humedad: 73%
Barómetro: 1015 hPa
Clouds: Muy nuboso
Visibility: 10 km
Cloud details: Muy nuboso 792 m
2021/07/30 06:30 LELO 300630Z 27009KT 9999 BKN026 19/14 Q1015
LEBB - Bilbao/Sondica, Spain
Distance from station: NNO 54km
Actualización: 30/07/2021 08:30
Parcialmente nuboso
Parcialmente nuboso
 Viento del E
Viento: E 6 km/h
Temperatura: 18°C
Rocío: 17°C
Humedad: 94%
Barómetro: 1016 hPa
Clouds: Parcialmente nuboso
Visibility: 10 km
Cloud details: Few Clouds 457 m
Parcialmente nuboso 1219 m
2021/07/30 06:30 LEBB 300630Z 09003KT 040V120 9999 FEW015 SCT040 18/17 Q1016 NOSIG
 
LEPP - Pamplona/Noain, Spain
Distance from station: E 78km
Actualización: 30/07/2021 08:30
Muy nuboso
Muy nuboso
 Viento del NO
Viento: NO 11 km/h
Temperatura: 18°C
Rocío: 14°C
Humedad: 78%
Barómetro: 1016 hPa
Clouds: Muy nuboso
Visibility: 10 km
Cloud details: Muy nuboso 549 m
2021/07/30 06:30 LEPP 300630Z 32006KT 9999 BKN018 18/14 Q1016
LESO - San Sebastian/Fu, Spain
Distance from station: NE 85km
Actualización: 30/07/2021 08:30
Cubierto
Cubierto
 Viento del SO
Viento: SO 9 km/h
Temperatura: 19°C
Rocío: 17°C
Humedad: 88%
Barómetro: 1016 hPa
Clouds: Cubierto
Visibility: 10 km
Cloud details: Few Clouds 305 m
Cubierto 914 m
2021/07/30 06:30 LESO 300630Z 23005KT 200V260 9999 FEW010 OVC030 19/17 Q1016
LEBG - Burgos/Villafria, Spain
Distance from station: SO 100km
Actualización: 30/07/2021 08:30
Parcialmente nuboso
Parcialmente nuboso
 Viento del NE
Viento: NE 19 km/h
Temperatura: 14°C
Rocío: 12°C
Humedad: 88%
Barómetro: 1017 hPa
Clouds: Parcialmente nuboso
Visibility: 10 km
Cloud details: Parcialmente nuboso 305 m
2021/07/30 06:30 LEBG 300630Z 04010KT 9999 SCT010 14/12 Q1017
 
LFBZ - Biarritz/Anglet, France
Distance from station: NE 111km
Actualización: 30/07/2021 08:30
Cubierto
Cubierto
 Viento del SSO
Viento: SSO 6 km/h
Temperatura: 18°C
Rocío: 17°C
Humedad: 94%
Barómetro: 1015 hPa
Clouds: Cubierto
Visibility: 9 km
Cloud details: Few Clouds 61 m
Muy nuboso 671 m
Cubierto 884 m
2021/07/30 06:30 LFBZ 300630Z AUTO 21003KT 160V230 9000 FEW002 BKN022 OVC029 18/17 Q1015 TEMPO 2500 -SHRA BKN005 BKN014TCU
LEXJ - Santander/Paraya, Spain
Distance from station: ONO 117km
Actualización: 30/07/2021 08:30
Parcialmente nuboso
Parcialmente nuboso
 Viento del SO
Viento: SO 9 km/h
Temperatura: 19°C
Rocío: 16°C
Humedad: 83%
Barómetro: 1016 hPa
Clouds: Parcialmente nuboso
Visibility: 10 km
Cloud details: Few Clouds 549 m
Parcialmente nuboso 1341 m
2021/07/30 06:30 LEXJ 300630Z 22005KT 190V250 9999 FEW018 SCT044 19/16 Q1016